Latest Weather Observations for Dwellingup

IDW60801

Issued at 9:33 am WST Thursday 21 March 2019 (issued every 10 minutes, with the page automatically refreshed every 10 minutes)

About weather observations | Map of weather stations | Latest weather observations for WA | Other Formats
Station Details ID: 009538 Name: DWELLINGUP Lat: -32.71 Lon: 116.06 Height: 267.0 m
Data from the previous 72 hours. | See also: Recent months at Dwellingup
Date/Time
WST
Temp
°C
App
Temp
°C
Dew
Point
°C
Rel
Hum
%
Delta-T
°C
Wind Press
QNH
hPa
Press
MSL
hPa
Rain since
9am
mm
Dir  Spd
km/h
Gust
km/h
Spd
kts
Gust
kts
21/09:30am 22.6 21.9 16.4 68 3.8 ESE 15 26 8 14 1012.4 1011.4 0.0
21/09:00am 21.2 20.0 16.0 72 3.2 ESE 17 30 9 16 1012.3 1011.3 0.0
21/08:30am 20.8 19.0 16.0 74 2.9 ESE 20 32 11 17 1012.1 1011.1 0.0
21/08:00am 20.2 18.3 15.8 76 2.7 ESE 20 32 11 17 1012.0 1011.0 0.0
21/07:30am 19.7 17.9 15.6 77 2.5 ESE 19 35 10 19 1012.3 1011.3 0.0
21/07:00am 19.3 16.9 15.4 78 2.3 ESE 22 35 12 19 1012.2 1011.2 0.0
21/06:30am 19.3 17.3 15.4 78 2.3 ESE 20 33 11 18 1011.9 1010.9 0.0
21/06:00am 19.3 17.5 15.4 78 2.3 ESE 19 30 10 16 1011.8 1010.8 0.0
21/05:30am 19.5 16.7 15.4 77 2.4 ESE 24 37 13 20 1011.3 1010.4 0.0
21/05:00am 19.6 17.2 15.3 76 2.6 ESE 22 37 12 20 1011.2 1010.3 0.0
21/04:30am 19.8 17.2 15.0 74 2.8 ESE 22 35 12 19 1011.1 1010.2 0.0
21/04:00am 20.1 17.6 15.1 73 3.0 ESE 22 37 12 20 1010.7 1009.8 0.0
21/03:30am 20.4 17.1 15.0 71 3.2 ESE 26 46 14 25 1010.9 1010.0 0.0
21/03:00am 20.9 18.0 15.0 69 3.5 ESE 24 41 13 22 1011.0 1010.1 0.0
21/02:30am 21.5 19.0 15.1 67 3.8 ESE 22 39 12 21 1011.3 1010.4 0.0
21/02:00am 22.0 19.8 14.9 64 4.3 ESE 20 37 11 20 1011.3 1010.4 0.0
21/01:30am 22.6 20.3 14.7 61 4.7 ESE 20 37 11 20 1011.4 1010.5 0.0
21/01:00am 23.1 21.0 14.7 59 5.0 ESE 19 33 10 18 1011.6 1010.7 0.0
21/12:30am 23.4 21.2 14.9 59 5.1 ESE 20 37 11 20 1011.9 1010.9 0.0
21/12:00am 23.8 21.6 14.8 57 5.4 ESE 20 39 11 21 1012.1 1011.1 0.0
 
Date/Time
WST
Temp
°C
App
Temp
°C
Dew
Point
°C
Rel
Hum
%
Delta-T
°C
Wind Press
QNH
hPa
Press
MSL
hPa
Rain since
9am
mm
Dir  Spd
km/h
Gust
km/h
Spd
kts
Gust
kts
20/11:30pm 24.3 21.3 14.7 55 5.8 ESE 24 41 13 22 1012.1 1011.1 0.0
20/11:00pm 24.6 21.7 14.1 52 6.3 ESE 22 35 12 19 1012.4 1011.4 0.0
20/10:30pm 25.0 22.1 13.9 50 6.6 ESE 22 33 12 18 1012.3 1011.3 0.0
20/10:00pm 25.3 22.7 13.8 49 6.9 ESE 20 33 11 18 1012.4 1011.4 0.0
20/09:30pm 25.3 22.9 13.8 49 6.8 ESE 19 32 10 17 1012.5 1011.5 0.0
20/09:00pm 25.8 23.1 13.6 47 7.3 SE 20 35 11 19 1012.6 1011.6 0.0
20/08:30pm 26.0 23.4 13.2 45 7.6 ESE 19 28 10 15 1012.8 1011.8 0.0
20/08:00pm 26.6 25.0 14.0 46 7.6 ESE 15 30 8 16 1012.4 1011.4 0.0
20/07:30pm 26.9 25.4 14.3 46 7.6 SE 15 33 8 18 1011.8 1010.8 0.0
20/07:00pm 27.1 26.9 15.8 50 7.0 SSE 11 15 6 8 1011.5 1010.6 0.0
20/06:30pm 27.6 28.1 15.6 48 7.4 SSW 7 13 4 7 1011.3 1010.4 0.0
20/06:00pm 28.1 27.5 15.7 46 7.7 WSW 13 19 7 10 1010.9 1010.0 0.0
20/05:30pm 29.0 28.3 15.5 44 8.4 WSW 13 19 7 10 1010.7 1009.8 0.0
20/05:00pm 30.1 29.4 15.4 41 9.2 WSW 13 22 7 12 1010.8 1009.9 0.0
20/04:30pm 31.2 30.8 15.2 38 10.0 SW 11 20 6 11 1010.8 1009.9 0.0
20/04:00pm 31.8 30.9 14.9 36 10.5 SW 13 20 7 11 1010.8 1009.9 0.0
20/03:30pm 33.1 32.6 12.7 29 12.3 WSW 7 17 4 9 1010.8 1009.9 0.0
20/03:00pm 32.1 33.1 13.3 31 11.4 CALM 0 6 0 3 1010.9 1010.0 0.0
20/02:30pm 33.4 33.2 13.5 30 12.2 SW 7 11 4 6 1011.0 1010.1 0.0
20/02:00pm 32.3 32.5 13.0 31 11.7 WNW 4 11 2 6 1011.2 1010.3 0.0
20/01:30pm 32.9 32.7 13.5 30 11.9 SSW 7 11 4 6 1011.5 1010.6 0.0
20/01:00pm 33.3 33.2 13.9 31 11.9 SSE 7 13 4 7 1011.8 1010.8 0.0
20/12:30pm 32.7 32.4 13.4 31 11.8 E 7 13 4 7 1012.3 1011.3 0.0
20/12:00pm 31.4 31.7 14.5 35 10.4 WNW 6 15 3 8 1012.7 1011.7 0.0
20/11:30am 30.3 30.7 14.8 39 9.6 NNW 6 11 3 6 1013.0 1012.0 0.0
20/11:00am 29.7 29.9 15.8 43 8.7 NNW 9 15 5 8 1013.3 1012.4 0.0
20/10:30am 29.1 29.2 15.6 44 8.4 N 9 13 5 7 1013.5 1012.6 0.0
20/10:00am 27.3 27.5 15.7 49 7.2 NNE 9 13 5 7 1013.6 1012.7 0.0
20/09:30am 26.2 26.1 15.0 50 6.8 NE 9 13 5 7 1013.6 1012.7 0.0
20/09:00am 25.8 25.4 15.2 52 6.5 ENE 11 17 6 9 1013.4 1012.5 0.0
20/08:30am 23.7 23.8 15.5 60 5.0 E 9 15 5 8 1013.3 1012.4 0.0
20/08:00am 21.5 21.3 15.6 69 3.6 ESE 11 19 6 10 1013.2 1012.3 0.0
20/07:30am 19.3 18.5 15.2 77 2.4 ESE 13 19 7 10 1013.1 1012.2 0.0
20/07:00am 18.4 17.1 14.7 79 2.2 ESE 15 19 8 10 1012.9 1011.9 0.0
20/06:30am 18.4 17.1 14.7 79 2.2 ESE 15 19 8 10 1012.7 1011.7 0.0
20/06:00am 18.7 17.3 14.6 77 2.4 ESE 15 19 8 10 1012.5 1011.5 0.0
20/05:30am 19.0 17.7 14.7 76 2.5 ESE 15 20 8 11 1012.3 1011.3 0.0
20/05:00am 19.2 17.9 14.7 75 2.7 ESE 15 19 8 10 1012.2 1011.2 0.0
20/04:30am 19.4 18.1 14.9 75 2.7 ESE 15 19 8 10 1012.1 1011.1 0.0
20/04:00am 19.3 18.1 15.0 76 2.5 SE 15 17 8 9 1011.9 1010.9 0.0
20/03:30am 19.4 18.1 14.9 75 2.7 SE 15 19 8 10 1011.8 1010.8 0.0
20/03:00am 19.6 18.7 14.8 74 2.8 ESE 13 19 7 10 1011.8 1010.8 0.0
20/02:30am 20.1 18.9 15.1 73 3.0 E 15 19 8 10 1011.8 1010.8 0.0
20/02:00am 20.5 19.3 15.1 71 3.2 E 15 26 8 14 1011.9 1010.9 0.0
20/01:30am 21.1 19.9 15.0 68 3.6 E 15 19 8 10 1011.9 1010.9 0.0
20/01:00am 21.6 20.8 15.0 66 4.0 ESE 13 20 7 11 1012.0 1011.0 0.0
20/12:30am 21.7 20.4 14.8 65 4.1 ESE 15 22 8 12 1012.1 1011.1 0.0
20/12:00am 21.9 20.6 14.8 64 4.2 ESE 15 28 8 15 1012.1 1011.1 0.0
 
Date/Time
WST
Temp
°C
App
Temp
°C
Dew
Point
°C
Rel
Hum
%
Delta-T
°C
Wind Press
QNH
hPa
Press
MSL
hPa
Rain since
9am
mm
Dir  Spd
km/h
Gust
km/h
Spd
kts
Gust
kts
19/11:30pm 22.2 20.8 14.6 62 4.5 ESE 15 26 8 14 1012.0 1011.0 0.0
19/11:00pm 22.0 20.7 14.9 64 4.3 SE 15 17 8 9 1011.9 1010.9 0.0
19/10:30pm 22.4 21.7 15.3 64 4.3 ESE 13 17 7 9 1012.3 1011.3 0.0
19/10:00pm 22.7 22.4 15.5 64 4.4 ESE 11 15 6 8 1012.5 1011.5 0.0
19/09:30pm 22.6 22.4 15.7 65 4.2 ESE 11 13 6 7 1012.4 1011.4 0.0
19/09:00pm 23.1 22.8 15.4 62 4.7 ESE 11 17 6 9 1012.5 1011.5 0.0
19/08:30pm 23.6 23.3 15.4 60 5.0 SE 11 15 6 8 1012.4 1011.4 0.0
19/08:00pm 24.0 24.1 15.5 59 5.2 SSE 9 11 5 6 1012.3 1011.3 0.0
19/07:30pm 24.1 23.4 15.3 58 5.3 SSW 13 15 7 8 1011.5 1010.6 0.0
19/07:00pm 24.5 24.6 15.4 57 5.5 SSW 9 11 5 6 1011.1 1010.2 0.0
19/06:30pm 25.2 25.3 15.5 55 5.9 SSW 9 13 5 7 1010.9 1010.0 0.0
19/06:00pm 26.6 25.9 15.3 50 6.9 SSW 13 17 7 9 1010.5 1009.6 0.0
19/05:30pm 27.5 27.8 16.1 49 7.1 SW 9 17 5 9 1010.1 1009.2 0.0
19/05:00pm 28.2 27.7 15.8 47 7.7 SW 13 20 7 11 1009.9 1009.0 0.0
19/04:30pm 29.0 28.6 16.2 46 8.0 WSW 13 24 7 13 1009.6 1008.6 0.0
19/04:00pm 29.7 28.2 15.4 42 8.9 W 17 26 9 14 1009.6 1008.6 0.0
19/03:30pm 31.1 29.8 14.7 37 10.1 W 15 30 8 16 1009.8 1008.9 0.0
19/03:00pm 31.5 29.4 13.7 33 10.9 WNW 17 30 9 16 1009.9 1009.0 0.0
19/02:30pm 31.7 29.8 15.2 36 10.3 WNW 19 30 10 16 1010.1 1009.2 0.0
19/02:00pm 32.0 31.3 14.2 34 11.0 WNW 11 22 6 12 1010.1 1009.2 0.0
19/01:30pm 33.0 31.2 12.1 28 12.5 NW 13 22 7 12 1010.2 1009.3 0.0
19/01:00pm 32.6 30.1 12.3 29 12.2 NNW 17 33 9 18 1010.5 1009.6 0.0
19/12:30pm 32.1 30.0 12.3 29 11.8 NNW 15 26 8 14 1010.9 1010.0 0.0
19/12:00pm 31.8 30.3 13.1 32 11.3 NNW 13 24 7 13 1011.3 1010.4 0.0
19/11:30am 30.9 28.5 12.8 33 10.9 N 17 30 9 16 1011.6 1010.7 0.0
19/11:00am 30.1 27.8 13.0 35 10.3 N 17 32 9 17 1012.0 1011.0 0.0
19/10:30am 29.7 27.6 13.5 37 9.8 N 17 28 9 15 1012.3 1011.3 0.0
19/10:00am 28.6 26.7 14.1 41 8.8 NNE 17 30 9 16 1012.4 1011.4 0.0
19/09:30am 26.9 25.0 14.3 46 7.6 NE 17 30 9 16 1012.5 1011.5 0.0
19/09:00am 25.8 24.8 14.6 50 6.8 ENE 13 24 7 13 1012.8 1011.8 0.0
19/08:30am 23.7 22.7 14.7 57 5.4 E 13 22 7 12 1012.5 1011.5 0.0
19/08:00am 22.2 21.5 15.3 65 4.2 E 13 19 7 10 1012.4 1011.4 0.0
19/07:30am 21.2 20.4 15.1 68 3.6 ESE 13 19 7 10 1012.5 1011.5 0.0
19/07:00am 19.6 18.3 14.8 74 2.8 ESE 15 20 8 11 1012.4 1011.4 0.0
19/06:30am 19.7 17.9 14.5 72 3.1 ESE 17 22 9 12 1012.1 1011.1 0.0
19/06:00am 20.0 19.0 14.6 71 3.2 ESE 13 19 7 10 1012.0 1011.0 0.0
19/05:30am 20.0 18.6 14.6 71 3.2 E 15 22 8 12 1011.8 1010.8 0.0
19/05:00am 20.0 18.6 14.6 71 3.2 E 15 22 8 12 1011.6 1010.7 0.0
19/04:30am 20.2 18.5 14.6 70 3.3 E 17 30 9 16 1011.5 1010.6 0.0
19/04:00am 20.5 18.8 14.6 69 3.5 E 17 24 9 13 1011.6 1010.7 0.0
19/03:30am 20.8 19.5 14.7 68 3.6 E 15 26 8 14 1011.8 1010.8 0.0
19/03:00am 21.0 19.0 14.9 68 3.6 E 19 33 10 18 1011.9 1010.9 0.0
19/02:30am 21.5 19.5 14.9 66 3.9 E 19 30 10 16 1012.2 1011.2 0.0
19/02:00am 21.9 19.9 15.0 65 4.1 ESE 19 30 10 16 1012.3 1011.3 0.0
19/01:30am 21.7 19.9 15.5 68 3.7 ESE 19 30 10 16 1012.2 1011.2 0.0
19/01:00am 22.3 20.5 15.6 66 4.1 ESE 19 28 10 15 1012.2 1011.2 0.0
19/12:30am 23.0 21.2 15.6 63 4.5 ESE 19 37 10 20 1012.3 1011.3 0.0
19/12:00am 23.6 22.0 15.1 59 5.1 ESE 17 28 9 15 1012.6 1011.6 0.0
 
Date/Time
WST
Temp
°C
App
Temp
°C
Dew
Point
°C
Rel
Hum
%
Delta-T
°C
Wind Press
QNH
hPa
Press
MSL
hPa
Rain since
9am
mm
Dir  Spd
km/h
Gust
km/h
Spd
kts
Gust
kts
18/11:30pm 23.9 21.6 14.6 56 5.6 ESE 20 32 11 17 1012.5 1011.5 0.0
18/11:00pm 23.4 22.0 14.4 57 5.4 ESE 15 24 8 13 1012.6 1011.6 0.0
18/10:30pm 24.0 22.7 14.7 56 5.6 ESE 15 20 8 11 1012.7 1011.7 0.0
18/10:00pm 23.3 22.4 15.9 63 4.5 ESE 15 20 8 11 1012.7 1011.7 0.0
18/09:30pm 23.8 22.9 15.8 61 4.9 SE 15 30 8 16 1012.5 1011.5 0.0
18/09:00pm 24.2 23.5 15.4 58 5.4 E 13 17 7 9 1012.5 1011.5 0.0
18/08:30pm 24.9 24.5 15.2 54 5.9 SE 11 28 6 15 1012.5 1011.5 0.0
18/08:00pm 24.5 24.5 15.1 55 5.7 ESE 9 11 5 6 1011.8 1010.8 0.0
18/07:30pm 25.5 25.6 15.5 54 6.1 SW 9 15 5 8 1011.2 1010.3 0.0
18/07:00pm 27.0 26.7 15.4 49 7.1 SW 11 13 6 7 1011.1 1010.2 0.0
18/06:30pm 28.4 28.2 15.7 46 7.9 SW 11 13 6 7 1011.0 1010.1 0.0
18/06:00pm 30.6 30.7 15.5 40 9.4 SW 9 13 5 7 1010.9 1010.0 0.0
18/05:30pm 31.0 30.9 15.0 38 9.9 SW 9 13 5 7 1010.8 1009.9 0.0
18/05:00pm 31.8 31.2 13.5 32 11.1 SW 9 15 5 8 1010.6 1009.7 0.0
18/04:30pm 32.4 31.5 12.6 30 11.9 WSW 9 19 5 10 1010.4 1009.5 0.0
18/04:00pm 33.7 32.6 13.2 29 12.5 WSW 11 20 6 11 1010.5 1009.6 0.0
18/03:30pm 34.1 32.7 13.5 28 12.6 W 13 19 7 10 1010.4 1009.5 0.0
18/03:00pm 32.3 31.9 13.0 31 11.7 NNE 7 13 4 7 1010.7 1009.8 0.0
18/02:30pm 33.7 33.6 12.1 27 13.0 NNE 4 13 2 7 1011.0 1010.1 0.0
18/02:00pm 33.7 33.8 12.7 28 12.7 NE 4 11 2 6 1011.3 1010.4 0.0
18/01:30pm 32.8 31.2 12.9 29 12.0 N 13 26 7 14 1011.9 1010.9 0.0
18/01:00pm 32.7 32.8 13.8 31 11.6 NNE 6 13 3 7 1012.4 1011.4 0.0
18/12:30pm 31.7 31.2 13.9 34 10.9 NE 9 17 5 9 1012.8 1011.8 0.0
18/12:00pm 30.4 30.0 14.1 37 10.0 ENE 9 13 5 7 1013.4 1012.5 0.0
18/11:30am 29.8 29.1 15.5 42 8.9 ENE 13 19 7 10 1013.8 1012.9 0.0
18/11:00am 28.0 26.9 15.3 46 7.8 ENE 15 26 8 14 1014.4 1013.5 0.0
18/10:30am 27.2 27.0 15.6 49 7.2 E 11 20 6 11 1014.8 1013.9 0.0
18/10:00am 25.7 24.9 16.0 55 6.0 E 15 26 8 14 1015.1 1014.2 0.0

Other formats

Comma delimited format used in spreadsheet applications
http://www.bom.gov.au/fwo/IDW60801/IDW60801.94620.axf

JavaScript Object Notation format (JSON) in row-major order
http://www.bom.gov.au/fwo/IDW60801/IDW60801.94620.json

Data quality

Most of these data are generated automatically and are frequently updated. Quality checks on data are not normally performed. It is possible for incorrect values to appear. Refer to information at About Latest Weather Observations and please check the disclaimer before using these data.